sensor_id;sensor_type;location;lat;lon;timestamp;P1;durP1;ratioP1;P2;durP2;ratioP2
3718;SDS011;1875;52.492;6.860;2023-05-07T00:01:10;20.47;;;16.83;;
3718;SDS011;1875;52.492;6.860;2023-05-07T00:03:38;19.47;;;17.40;;
3718;SDS011;1875;52.492;6.860;2023-05-07T00:06:06;19.67;;;15.40;;
3718;SDS011;1875;52.492;6.860;2023-05-07T00:08:34;17.90;;;15.13;;
3718;SDS011;1875;52.492;6.860;2023-05-07T00:11:02;17.83;;;14.97;;
3718;SDS011;1875;52.492;6.860;2023-05-07T00:13:29;17.43;;;15.63;;
3718;SDS011;1875;52.492;6.860;2023-05-07T00:16:03;23.37;;;16.17;;
3718;SDS011;1875;52.492;6.860;2023-05-07T00:18:31;20.93;;;16.47;;
3718;SDS011;1875;52.492;6.860;2023-05-07T00:20:58;17.97;;;16.07;;
3718;SDS011;1875;52.492;6.860;2023-05-07T00:23:26;19.83;;;15.87;;
3718;SDS011;1875;52.492;6.860;2023-05-07T00:25:54;17.60;;;15.77;;
3718;SDS011;1875;52.492;6.860;2023-05-07T00:28:22;24.13;;;16.23;;
3718;SDS011;1875;52.492;6.860;2023-05-07T00:30:49;22.43;;;15.47;;
3718;SDS011;1875;52.492;6.860;2023-05-07T00:33:18;18.47;;;14.77;;
3718;SDS011;1875;52.492;6.860;2023-05-07T00:35:46;19.43;;;14.40;;
3718;SDS011;1875;52.492;6.860;2023-05-07T00:38:14;20.23;;;15.50;;
3718;SDS011;1875;52.492;6.860;2023-05-07T00:40:42;20.53;;;15.53;;
3718;SDS011;1875;52.492;6.860;2023-05-07T00:43:10;23.83;;;16.07;;
3718;SDS011;1875;52.492;6.860;2023-05-07T00:45:38;26.20;;;17.30;;
3718;SDS011;1875;52.492;6.860;2023-05-07T00:48:07;24.63;;;17.43;;
3718;SDS011;1875;52.492;6.860;2023-05-07T00:50:36;19.60;;;15.63;;
3718;SDS011;1875;52.492;6.860;2023-05-07T00:53:03;23.80;;;16.30;;
3718;SDS011;1875;52.492;6.860;2023-05-07T00:55:32;23.97;;;17.50;;
3718;SDS011;1875;52.492;6.860;2023-05-07T00:58:00;22.33;;;17.40;;
3718;SDS011;1875;52.492;6.860;2023-05-07T01:00:28;21.33;;;17.67;;
3718;SDS011;1875;52.492;6.860;2023-05-07T01:02:55;24.10;;;18.97;;
3718;SDS011;1875;52.492;6.860;2023-05-07T01:05:24;26.43;;;18.77;;
3718;SDS011;1875;52.492;6.860;2023-05-07T01:07:55;29.23;;;19.63;;
3718;SDS011;1875;52.492;6.860;2023-05-07T01:10:24;30.57;;;19.70;;
3718;SDS011;1875;52.492;6.860;2023-05-07T01:12:51;24.27;;;19.00;;
3718;SDS011;1875;52.492;6.860;2023-05-07T01:15:19;22.07;;;19.23;;
3718;SDS011;1875;52.492;6.860;2023-05-07T01:17:47;28.17;;;19.37;;
3718;SDS011;1875;52.492;6.860;2023-05-07T01:20:15;28.87;;;20.63;;
3718;SDS011;1875;52.492;6.860;2023-05-07T01:22:45;28.40;;;20.73;;
3718;SDS011;1875;52.492;6.860;2023-05-07T01:25:13;26.67;;;19.90;;
3718;SDS011;1875;52.492;6.860;2023-05-07T01:27:42;26.13;;;21.33;;
3718;SDS011;1875;52.492;6.860;2023-05-07T01:30:10;27.33;;;20.03;;
3718;SDS011;1875;52.492;6.860;2023-05-07T01:32:40;27.87;;;20.97;;
3718;SDS011;1875;52.492;6.860;2023-05-07T01:35:11;27.83;;;21.90;;
3718;SDS011;1875;52.492;6.860;2023-05-07T01:37:39;24.53;;;20.13;;
3718;SDS011;1875;52.492;6.860;2023-05-07T01:40:09;30.53;;;23.40;;
3718;SDS011;1875;52.492;6.860;2023-05-07T01:42:37;28.43;;;21.10;;
3718;SDS011;1875;52.492;6.860;2023-05-07T01:45:06;28.43;;;22.30;;
3718;SDS011;1875;52.492;6.860;2023-05-07T01:47:34;27.60;;;21.33;;
3718;SDS011;1875;52.492;6.860;2023-05-07T01:50:04;27.27;;;23.00;;
3718;SDS011;1875;52.492;6.860;2023-05-07T01:52:35;29.93;;;22.83;;
3718;SDS011;1875;52.492;6.860;2023-05-07T01:55:04;28.47;;;22.73;;
3718;SDS011;1875;52.492;6.860;2023-05-07T01:57:34;28.10;;;22.73;;
3718;SDS011;1875;52.492;6.860;2023-05-07T02:00:02;28.57;;;23.37;;
3718;SDS011;1875;52.492;6.860;2023-05-07T02:02:32;31.50;;;22.97;;
3718;SDS011;1875;52.492;6.860;2023-05-07T02:05:02;28.97;;;23.33;;
3718;SDS011;1875;52.492;6.860;2023-05-07T02:07:30;29.90;;;22.97;;
3718;SDS011;1875;52.492;6.860;2023-05-07T02:09:57;28.37;;;23.90;;
3718;SDS011;1875;52.492;6.860;2023-05-07T02:12:25;29.37;;;22.47;;
3718;SDS011;1875;52.492;6.860;2023-05-07T02:14:54;27.50;;;24.07;;
3718;SDS011;1875;52.492;6.860;2023-05-07T02:17:22;35.30;;;24.93;;
3718;SDS011;1875;52.492;6.860;2023-05-07T02:19:50;32.63;;;22.30;;
3718;SDS011;1875;52.492;6.860;2023-05-07T02:22:17;31.77;;;23.80;;
3718;SDS011;1875;52.492;6.860;2023-05-07T02:24:45;33.30;;;24.63;;
3718;SDS011;1875;52.492;6.860;2023-05-07T02:27:13;30.40;;;23.57;;
3718;SDS011;1875;52.492;6.860;2023-05-07T02:29:40;32.67;;;23.20;;
3718;SDS011;1875;52.492;6.860;2023-05-07T02:32:09;35.03;;;23.93;;
3718;SDS011;1875;52.492;6.860;2023-05-07T02:34:37;34.83;;;23.03;;
3718;SDS011;1875;52.492;6.860;2023-05-07T02:37:05;35.40;;;24.57;;
3718;SDS011;1875;52.492;6.860;2023-05-07T02:39:33;27.67;;;23.27;;
3718;SDS011;1875;52.492;6.860;2023-05-07T02:42:01;31.47;;;22.93;;
3718;SDS011;1875;52.492;6.860;2023-05-07T02:44:28;33.30;;;25.23;;
3718;SDS011;1875;52.492;6.860;2023-05-07T02:46:57;29.07;;;19.83;;
3718;SDS011;1875;52.492;6.860;2023-05-07T02:49:26;36.60;;;24.50;;
3718;SDS011;1875;52.492;6.860;2023-05-07T02:51:54;32.80;;;24.97;;
3718;SDS011;1875;52.492;6.860;2023-05-07T02:54:22;34.23;;;24.30;;
3718;SDS011;1875;52.492;6.860;2023-05-07T02:56:49;33.77;;;24.93;;
3718;SDS011;1875;52.492;6.860;2023-05-07T02:59:17;31.50;;;25.20;;
3718;SDS011;1875;52.492;6.860;2023-05-07T03:01:45;34.03;;;25.77;;
3718;SDS011;1875;52.492;6.860;2023-05-07T03:04:13;31.80;;;24.77;;
3718;SDS011;1875;52.492;6.860;2023-05-07T03:06:42;30.87;;;24.53;;
3718;SDS011;1875;52.492;6.860;2023-05-07T03:09:10;33.90;;;26.10;;
3718;SDS011;1875;52.492;6.860;2023-05-07T03:11:37;35.23;;;26.83;;
3718;SDS011;1875;52.492;6.860;2023-05-07T03:14:05;35.33;;;27.73;;
3718;SDS011;1875;52.492;6.860;2023-05-07T03:16:33;35.23;;;27.53;;
3718;SDS011;1875;52.492;6.860;2023-05-07T03:19:00;40.23;;;27.87;;
3718;SDS011;1875;52.492;6.860;2023-05-07T03:21:29;42.20;;;28.20;;
3718;SDS011;1875;52.492;6.860;2023-05-07T03:24:01;39.07;;;28.90;;
3718;SDS011;1875;52.492;6.860;2023-05-07T03:26:28;41.93;;;28.77;;
3718;SDS011;1875;52.492;6.860;2023-05-07T03:28:56;39.00;;;27.07;;
3718;SDS011;1875;52.492;6.860;2023-05-07T03:31:24;44.83;;;30.00;;
3718;SDS011;1875;52.492;6.860;2023-05-07T03:33:52;38.50;;;29.20;;
3718;SDS011;1875;52.492;6.860;2023-05-07T03:36:21;38.60;;;29.40;;
3718;SDS011;1875;52.492;6.860;2023-05-07T03:38:49;40.73;;;29.83;;
3718;SDS011;1875;52.492;6.860;2023-05-07T03:41:18;43.33;;;30.57;;
3718;SDS011;1875;52.492;6.860;2023-05-07T03:43:46;41.80;;;30.27;;
3718;SDS011;1875;52.492;6.860;2023-05-07T03:46:14;43.73;;;30.10;;
3718;SDS011;1875;52.492;6.860;2023-05-07T03:48:42;45.87;;;30.93;;
3718;SDS011;1875;52.492;6.860;2023-05-07T03:51:09;41.33;;;31.43;;
3718;SDS011;1875;52.492;6.860;2023-05-07T03:53:37;43.10;;;26.30;;
3718;SDS011;1875;52.492;6.860;2023-05-07T03:56:05;40.37;;;26.60;;
3718;SDS011;1875;52.492;6.860;2023-05-07T03:58:34;44.00;;;31.23;;
3718;SDS011;1875;52.492;6.860;2023-05-07T04:01:02;46.10;;;32.07;;
3718;SDS011;1875;52.492;6.860;2023-05-07T04:03:30;39.80;;;30.53;;
3718;SDS011;1875;52.492;6.860;2023-05-07T04:05:57;46.97;;;32.83;;
3718;SDS011;1875;52.492;6.860;2023-05-07T04:08:25;47.23;;;32.37;;
3718;SDS011;1875;52.492;6.860;2023-05-07T04:10:56;47.97;;;33.40;;
3718;SDS011;1875;52.492;6.860;2023-05-07T04:13:24;46.70;;;33.07;;
3718;SDS011;1875;52.492;6.860;2023-05-07T04:15:53;46.97;;;33.23;;
3718;SDS011;1875;52.492;6.860;2023-05-07T04:18:21;44.17;;;31.63;;
3718;SDS011;1875;52.492;6.860;2023-05-07T04:20:49;43.63;;;32.50;;
3718;SDS011;1875;52.492;6.860;2023-05-07T04:23:17;49.27;;;34.70;;
3718;SDS011;1875;52.492;6.860;2023-05-07T04:25:45;47.53;;;34.57;;
3718;SDS011;1875;52.492;6.860;2023-05-07T04:28:12;47.13;;;31.53;;
3718;SDS011;1875;52.492;6.860;2023-05-07T04:30:40;49.10;;;33.40;;
3718;SDS011;1875;52.492;6.860;2023-05-07T04:33:09;42.03;;;32.40;;
3718;SDS011;1875;52.492;6.860;2023-05-07T04:35:37;51.00;;;33.97;;
3718;SDS011;1875;52.492;6.860;2023-05-07T04:38:05;49.97;;;31.67;;
3718;SDS011;1875;52.492;6.860;2023-05-07T04:40:35;48.07;;;31.23;;
3718;SDS011;1875;52.492;6.860;2023-05-07T04:43:02;48.13;;;34.17;;
3718;SDS011;1875;52.492;6.860;2023-05-07T04:45:31;47.97;;;34.13;;
3718;SDS011;1875;52.492;6.860;2023-05-07T04:47:59;50.47;;;33.87;;
3718;SDS011;1875;52.492;6.860;2023-05-07T04:50:28;46.43;;;31.43;;
3718;SDS011;1875;52.492;6.860;2023-05-07T04:52:56;46.67;;;34.20;;
3718;SDS011;1875;52.492;6.860;2023-05-07T04:55:24;46.60;;;34.27;;
3718;SDS011;1875;52.492;6.860;2023-05-07T04:57:52;47.57;;;33.80;;
3718;SDS011;1875;52.492;6.860;2023-05-07T05:00:20;48.83;;;33.93;;
3718;SDS011;1875;52.492;6.860;2023-05-07T05:02:49;39.43;;;29.43;;
3718;SDS011;1875;52.492;6.860;2023-05-07T05:05:17;43.30;;;31.53;;
3718;SDS011;1875;52.492;6.860;2023-05-07T05:07:46;45.07;;;33.07;;
3718;SDS011;1875;52.492;6.860;2023-05-07T05:10:14;43.33;;;32.07;;
3718;SDS011;1875;52.492;6.860;2023-05-07T05:12:42;46.03;;;32.53;;
3718;SDS011;1875;52.492;6.860;2023-05-07T05:15:10;46.43;;;33.60;;
3718;SDS011;1875;52.492;6.860;2023-05-07T05:17:38;46.57;;;32.87;;
3718;SDS011;1875;52.492;6.860;2023-05-07T05:20:07;44.83;;;33.00;;
3718;SDS011;1875;52.492;6.860;2023-05-07T05:22:37;44.80;;;31.20;;
3718;SDS011;1875;52.492;6.860;2023-05-07T05:25:06;45.03;;;33.23;;
3718;SDS011;1875;52.492;6.860;2023-05-07T05:27:34;40.10;;;30.07;;
3718;SDS011;1875;52.492;6.860;2023-05-07T05:30:03;43.80;;;30.03;;
3718;SDS011;1875;52.492;6.860;2023-05-07T05:32:31;41.23;;;28.80;;
3718;SDS011;1875;52.492;6.860;2023-05-07T05:35:00;41.87;;;30.70;;
3718;SDS011;1875;52.492;6.860;2023-05-07T05:37:28;42.57;;;31.37;;
3718;SDS011;1875;52.492;6.860;2023-05-07T05:39:56;42.93;;;31.47;;
3718;SDS011;1875;52.492;6.860;2023-05-07T05:42:26;40.67;;;28.83;;
3718;SDS011;1875;52.492;6.860;2023-05-07T05:44:53;39.17;;;29.67;;
3718;SDS011;1875;52.492;6.860;2023-05-07T05:47:22;42.50;;;31.17;;
3718;SDS011;1875;52.492;6.860;2023-05-07T05:49:50;40.77;;;31.03;;
3718;SDS011;1875;52.492;6.860;2023-05-07T05:52:17;38.43;;;30.40;;
3718;SDS011;1875;52.492;6.860;2023-05-07T05:54:46;46.27;;;31.50;;
3718;SDS011;1875;52.492;6.860;2023-05-07T05:57:13;46.50;;;32.50;;
3718;SDS011;1875;52.492;6.860;2023-05-07T05:59:43;45.10;;;32.90;;
3718;SDS011;1875;52.492;6.860;2023-05-07T06:02:11;40.77;;;30.20;;
3718;SDS011;1875;52.492;6.860;2023-05-07T06:04:39;42.57;;;31.00;;
3718;SDS011;1875;52.492;6.860;2023-05-07T06:07:07;43.13;;;30.57;;
3718;SDS011;1875;52.492;6.860;2023-05-07T06:09:34;40.17;;;28.40;;
3718;SDS011;1875;52.492;6.860;2023-05-07T06:12:02;41.53;;;30.27;;
3718;SDS011;1875;52.492;6.860;2023-05-07T06:14:30;41.57;;;31.00;;
3718;SDS011;1875;52.492;6.860;2023-05-07T06:16:59;42.07;;;30.77;;
3718;SDS011;1875;52.492;6.860;2023-05-07T06:19:27;39.67;;;29.93;;
3718;SDS011;1875;52.492;6.860;2023-05-07T06:21:55;41.87;;;31.00;;
3718;SDS011;1875;52.492;6.860;2023-05-07T06:24:23;40.97;;;32.13;;
3718;SDS011;1875;52.492;6.860;2023-05-07T06:26:51;44.57;;;32.73;;
3718;SDS011;1875;52.492;6.860;2023-05-07T06:29:19;42.10;;;32.33;;
3718;SDS011;1875;52.492;6.860;2023-05-07T06:31:46;39.77;;;29.47;;
3718;SDS011;1875;52.492;6.860;2023-05-07T06:34:16;40.20;;;30.20;;
3718;SDS011;1875;52.492;6.860;2023-05-07T06:36:43;42.57;;;30.87;;
3718;SDS011;1875;52.492;6.860;2023-05-07T06:39:11;43.33;;;32.13;;
3718;SDS011;1875;52.492;6.860;2023-05-07T06:41:39;40.83;;;30.87;;
3718;SDS011;1875;52.492;6.860;2023-05-07T06:44:06;40.07;;;29.27;;
3718;SDS011;1875;52.492;6.860;2023-05-07T06:46:35;41.67;;;30.30;;
3718;SDS011;1875;52.492;6.860;2023-05-07T06:49:03;42.27;;;30.53;;
3718;SDS011;1875;52.492;6.860;2023-05-07T06:51:32;38.50;;;29.80;;
3718;SDS011;1875;52.492;6.860;2023-05-07T06:54:00;37.80;;;29.50;;
3718;SDS011;1875;52.492;6.860;2023-05-07T06:56:28;45.43;;;31.37;;
3718;SDS011;1875;52.492;6.860;2023-05-07T06:58:56;39.13;;;29.53;;
3718;SDS011;1875;52.492;6.860;2023-05-07T07:01:23;39.43;;;28.23;;
3718;SDS011;1875;52.492;6.860;2023-05-07T07:03:51;38.57;;;28.23;;
3718;SDS011;1875;52.492;6.860;2023-05-07T07:06:19;38.93;;;28.27;;
3718;SDS011;1875;52.492;6.860;2023-05-07T07:08:48;37.00;;;29.07;;
3718;SDS011;1875;52.492;6.860;2023-05-07T07:11:16;40.47;;;30.43;;
3718;SDS011;1875;52.492;6.860;2023-05-07T07:13:44;39.70;;;30.63;;
3718;SDS011;1875;52.492;6.860;2023-05-07T07:16:11;44.73;;;29.50;;
3718;SDS011;1875;52.492;6.860;2023-05-07T07:18:39;38.70;;;28.63;;
3718;SDS011;1875;52.492;6.860;2023-05-07T07:21:07;40.47;;;28.70;;
3718;SDS011;1875;52.492;6.860;2023-05-07T07:23:34;37.67;;;27.23;;
3718;SDS011;1875;52.492;6.860;2023-05-07T07:26:04;38.13;;;28.87;;
3718;SDS011;1875;52.492;6.860;2023-05-07T07:28:32;38.20;;;27.67;;
3718;SDS011;1875;52.492;6.860;2023-05-07T07:31:00;34.57;;;26.93;;
3718;SDS011;1875;52.492;6.860;2023-05-07T07:33:28;34.87;;;28.27;;
3718;SDS011;1875;52.492;6.860;2023-05-07T07:35:55;38.90;;;29.77;;
3718;SDS011;1875;52.492;6.860;2023-05-07T07:38:23;38.17;;;27.33;;
3718;SDS011;1875;52.492;6.860;2023-05-07T07:40:51;37.47;;;27.53;;
3718;SDS011;1875;52.492;6.860;2023-05-07T07:43:20;36.97;;;28.10;;
3718;SDS011;1875;52.492;6.860;2023-05-07T07:45:48;43.40;;;27.70;;
3718;SDS011;1875;52.492;6.860;2023-05-07T07:48:15;38.40;;;29.20;;
3718;SDS011;1875;52.492;6.860;2023-05-07T07:50:43;38.07;;;28.00;;
3718;SDS011;1875;52.492;6.860;2023-05-07T07:53:11;36.07;;;27.57;;
3718;SDS011;1875;52.492;6.860;2023-05-07T07:55:39;36.20;;;27.87;;
3718;SDS011;1875;52.492;6.860;2023-05-07T07:58:07;36.47;;;28.37;;
3718;SDS011;1875;52.492;6.860;2023-05-07T08:00:37;39.57;;;27.97;;
3718;SDS011;1875;52.492;6.860;2023-05-07T08:03:04;37.93;;;28.60;;
3718;SDS011;1875;52.492;6.860;2023-05-07T08:05:33;40.00;;;27.80;;
3718;SDS011;1875;52.492;6.860;2023-05-07T08:08:01;39.03;;;28.90;;
3718;SDS011;1875;52.492;6.860;2023-05-07T08:10:29;38.43;;;28.03;;
3718;SDS011;1875;52.492;6.860;2023-05-07T08:13:00;39.17;;;28.67;;
3718;SDS011;1875;52.492;6.860;2023-05-07T08:15:30;35.30;;;28.03;;
3718;SDS011;1875;52.492;6.860;2023-05-07T08:17:59;36.27;;;28.67;;
3718;SDS011;1875;52.492;6.860;2023-05-07T08:20:28;37.03;;;27.53;;
3718;SDS011;1875;52.492;6.860;2023-05-07T08:22:56;40.03;;;29.50;;
3718;SDS011;1875;52.492;6.860;2023-05-07T08:25:24;37.10;;;27.90;;
3718;SDS011;1875;52.492;6.860;2023-05-07T08:27:51;39.80;;;29.53;;
3718;SDS011;1875;52.492;6.860;2023-05-07T08:30:19;34.47;;;24.77;;
3718;SDS011;1875;52.492;6.860;2023-05-07T08:32:47;38.57;;;26.80;;
3718;SDS011;1875;52.492;6.860;2023-05-07T08:35:16;36.33;;;28.13;;
3718;SDS011;1875;52.492;6.860;2023-05-07T08:37:44;35.70;;;26.90;;
3718;SDS011;1875;52.492;6.860;2023-05-07T08:40:12;34.50;;;26.83;;
3718;SDS011;1875;52.492;6.860;2023-05-07T08:42:40;35.77;;;24.70;;
3718;SDS011;1875;52.492;6.860;2023-05-07T08:45:09;32.63;;;26.30;;
3718;SDS011;1875;52.492;6.860;2023-05-07T08:47:40;34.50;;;24.93;;
3718;SDS011;1875;52.492;6.860;2023-05-07T08:50:11;39.90;;;28.03;;
3718;SDS011;1875;52.492;6.860;2023-05-07T08:52:40;32.73;;;25.77;;
3718;SDS011;1875;52.492;6.860;2023-05-07T08:55:08;41.57;;;27.63;;
3718;SDS011;1875;52.492;6.860;2023-05-07T08:57:37;37.47;;;27.37;;
3718;SDS011;1875;52.492;6.860;2023-05-07T09:00:06;33.43;;;27.70;;
3718;SDS011;1875;52.492;6.860;2023-05-07T09:02:34;33.10;;;26.63;;
3718;SDS011;1875;52.492;6.860;2023-05-07T09:05:03;34.03;;;26.63;;
3718;SDS011;1875;52.492;6.860;2023-05-07T09:07:31;35.57;;;27.77;;
3718;SDS011;1875;52.492;6.860;2023-05-07T09:10:02;34.20;;;26.00;;
3718;SDS011;1875;52.492;6.860;2023-05-07T09:12:30;32.97;;;26.53;;
3718;SDS011;1875;52.492;6.860;2023-05-07T09:14:58;37.50;;;25.97;;
3718;SDS011;1875;52.492;6.860;2023-05-07T09:17:26;34.37;;;26.27;;
3718;SDS011;1875;52.492;6.860;2023-05-07T09:19:54;33.90;;;27.03;;
3718;SDS011;1875;52.492;6.860;2023-05-07T09:22:22;32.33;;;25.53;;
3718;SDS011;1875;52.492;6.860;2023-05-07T09:24:49;36.97;;;27.37;;
3718;SDS011;1875;52.492;6.860;2023-05-07T09:27:19;33.37;;;23.83;;
3718;SDS011;1875;52.492;6.860;2023-05-07T09:29:46;37.27;;;25.90;;
3718;SDS011;1875;52.492;6.860;2023-05-07T09:32:14;32.67;;;25.23;;
3718;SDS011;1875;52.492;6.860;2023-05-07T09:34:42;33.60;;;24.23;;
3718;SDS011;1875;52.492;6.860;2023-05-07T09:37:10;32.63;;;26.73;;
3718;SDS011;1875;52.492;6.860;2023-05-07T09:39:39;37.10;;;25.43;;
3718;SDS011;1875;52.492;6.860;2023-05-07T09:42:08;30.30;;;24.07;;
3718;SDS011;1875;52.492;6.860;2023-05-07T09:44:37;32.30;;;25.50;;
3718;SDS011;1875;52.492;6.860;2023-05-07T09:47:05;32.90;;;23.83;;
3718;SDS011;1875;52.492;6.860;2023-05-07T09:49:34;37.27;;;26.37;;
3718;SDS011;1875;52.492;6.860;2023-05-07T09:52:03;34.27;;;24.93;;
3718;SDS011;1875;52.492;6.860;2023-05-07T09:54:32;29.40;;;21.63;;
3718;SDS011;1875;52.492;6.860;2023-05-07T09:57:01;30.50;;;24.27;;
3718;SDS011;1875;52.492;6.860;2023-05-07T09:59:29;31.17;;;22.67;;
3718;SDS011;1875;52.492;6.860;2023-05-07T10:02:00;30.37;;;24.03;;
3718;SDS011;1875;52.492;6.860;2023-05-07T10:04:30;32.10;;;25.10;;
3718;SDS011;1875;52.492;6.860;2023-05-07T10:06:58;31.37;;;24.83;;
3718;SDS011;1875;52.492;6.860;2023-05-07T10:09:27;29.70;;;24.47;;
3718;SDS011;1875;52.492;6.860;2023-05-07T10:11:55;29.77;;;24.97;;
3718;SDS011;1875;52.492;6.860;2023-05-07T10:14:23;30.40;;;24.60;;
3718;SDS011;1875;52.492;6.860;2023-05-07T10:16:51;33.93;;;23.53;;
3718;SDS011;1875;52.492;6.860;2023-05-07T10:19:21;35.53;;;24.67;;
3718;SDS011;1875;52.492;6.860;2023-05-07T10:21:51;31.20;;;23.40;;
3718;SDS011;1875;52.492;6.860;2023-05-07T10:24:25;31.77;;;24.87;;
3718;SDS011;1875;52.492;6.860;2023-05-07T10:26:53;30.97;;;22.17;;
3718;SDS011;1875;52.492;6.860;2023-05-07T10:29:25;30.67;;;22.90;;
3718;SDS011;1875;52.492;6.860;2023-05-07T10:31:59;31.17;;;23.07;;
3718;SDS011;1875;52.492;6.860;2023-05-07T10:34:39;30.47;;;22.40;;
3718;SDS011;1875;52.492;6.860;2023-05-07T10:37:08;26.73;;;22.37;;
3718;SDS011;1875;52.492;6.860;2023-05-07T10:39:37;27.43;;;21.93;;
3718;SDS011;1875;52.492;6.860;2023-05-07T10:42:08;32.07;;;23.60;;
3718;SDS011;1875;52.492;6.860;2023-05-07T10:44:36;28.77;;;22.97;;
3718;SDS011;1875;52.492;6.860;2023-05-07T10:47:04;27.33;;;22.80;;
3718;SDS011;1875;52.492;6.860;2023-05-07T10:49:35;28.20;;;24.37;;
3718;SDS011;1875;52.492;6.860;2023-05-07T10:52:12;30.50;;;23.67;;
3718;SDS011;1875;52.492;6.860;2023-05-07T10:54:42;29.30;;;23.40;;
3718;SDS011;1875;52.492;6.860;2023-05-07T11:00:02;30.90;;;25.07;;
3718;SDS011;1875;52.492;6.860;2023-05-07T11:05:35;27.87;;;22.90;;
3718;SDS011;1875;52.492;6.860;2023-05-07T11:08:04;34.17;;;25.03;;
3718;SDS011;1875;52.492;6.860;2023-05-07T11:10:48;28.93;;;23.40;;
3718;SDS011;1875;52.492;6.860;2023-05-07T11:13:17;27.20;;;23.47;;
3718;SDS011;1875;52.492;6.860;2023-05-07T11:15:46;28.83;;;23.07;;
3718;SDS011;1875;52.492;6.860;2023-05-07T11:18:15;25.67;;;20.67;;
3718;SDS011;1875;52.492;6.860;2023-05-07T11:20:48;30.63;;;24.03;;
3718;SDS011;1875;52.492;6.860;2023-05-07T11:26:24;28.60;;;21.73;;
3718;SDS011;1875;52.492;6.860;2023-05-07T11:28:52;25.90;;;21.00;;
3718;SDS011;1875;52.492;6.860;2023-05-07T11:31:21;24.27;;;20.67;;
3718;SDS011;1875;52.492;6.860;2023-05-07T11:33:51;26.53;;;21.83;;
3718;SDS011;1875;52.492;6.860;2023-05-07T11:36:21;26.87;;;20.80;;
3718;SDS011;1875;52.492;6.860;2023-05-07T11:38:50;24.83;;;19.33;;
3718;SDS011;1875;52.492;6.860;2023-05-07T11:41:17;26.60;;;19.60;;
3718;SDS011;1875;52.492;6.860;2023-05-07T11:43:57;23.57;;;19.50;;
3718;SDS011;1875;52.492;6.860;2023-05-07T11:46:26;24.17;;;19.73;;
3718;SDS011;1875;52.492;6.860;2023-05-07T11:48:55;26.30;;;19.47;;
3718;SDS011;1875;52.492;6.860;2023-05-07T11:51:25;29.67;;;20.50;;
3718;SDS011;1875;52.492;6.860;2023-05-07T11:53:56;23.70;;;19.50;;
3718;SDS011;1875;52.492;6.860;2023-05-07T11:56:23;24.37;;;20.07;;
3718;SDS011;1875;52.492;6.860;2023-05-07T11:58:51;26.60;;;20.47;;
3718;SDS011;1875;52.492;6.860;2023-05-07T12:01:19;23.43;;;20.00;;
3718;SDS011;1875;52.492;6.860;2023-05-07T12:03:47;25.60;;;20.77;;
3718;SDS011;1875;52.492;6.860;2023-05-07T12:06:15;23.13;;;19.40;;
3718;SDS011;1875;52.492;6.860;2023-05-07T12:08:45;24.13;;;21.07;;
3718;SDS011;1875;52.492;6.860;2023-05-07T12:11:14;23.67;;;19.17;;
3718;SDS011;1875;52.492;6.860;2023-05-07T12:13:44;23.97;;;20.77;;
3718;SDS011;1875;52.492;6.860;2023-05-07T12:16:11;23.27;;;20.47;;
3718;SDS011;1875;52.492;6.860;2023-05-07T12:18:40;24.00;;;19.70;;
3718;SDS011;1875;52.492;6.860;2023-05-07T12:21:07;22.83;;;19.83;;
3718;SDS011;1875;52.492;6.860;2023-05-07T12:23:36;26.70;;;20.47;;
3718;SDS011;1875;52.492;6.860;2023-05-07T12:26:06;24.40;;;19.90;;
3718;SDS011;1875;52.492;6.860;2023-05-07T12:28:37;21.20;;;17.37;;
3718;SDS011;1875;52.492;6.860;2023-05-07T12:31:06;24.67;;;19.67;;
3718;SDS011;1875;52.492;6.860;2023-05-07T12:33:34;23.13;;;18.77;;
3718;SDS011;1875;52.492;6.860;2023-05-07T12:36:03;24.73;;;16.23;;
3718;SDS011;1875;52.492;6.860;2023-05-07T12:38:34;21.10;;;18.87;;
3718;SDS011;1875;52.492;6.860;2023-05-07T12:41:03;19.33;;;16.07;;
3718;SDS011;1875;52.492;6.860;2023-05-07T12:43:32;24.37;;;19.37;;
3718;SDS011;1875;52.492;6.860;2023-05-07T12:46:01;21.33;;;18.10;;
3718;SDS011;1875;52.492;6.860;2023-05-07T12:48:32;22.97;;;18.23;;
3718;SDS011;1875;52.492;6.860;2023-05-07T12:51:00;25.50;;;18.07;;
3718;SDS011;1875;52.492;6.860;2023-05-07T12:53:29;22.83;;;18.10;;
3718;SDS011;1875;52.492;6.860;2023-05-07T12:55:58;24.50;;;18.73;;
3718;SDS011;1875;52.492;6.860;2023-05-07T12:58:27;22.53;;;17.97;;
3718;SDS011;1875;52.492;6.860;2023-05-07T13:00:58;23.53;;;19.07;;
3718;SDS011;1875;52.492;6.860;2023-05-07T13:03:27;21.37;;;17.33;;
3718;SDS011;1875;52.492;6.860;2023-05-07T13:05:57;19.40;;;16.07;;
3718;SDS011;1875;52.492;6.860;2023-05-07T13:08:27;19.07;;;16.43;;
3718;SDS011;1875;52.492;6.860;2023-05-07T13:10:56;22.43;;;15.73;;
3718;SDS011;1875;52.492;6.860;2023-05-07T13:13:24;17.90;;;15.23;;
3718;SDS011;1875;52.492;6.860;2023-05-07T13:15:55;16.40;;;13.87;;
3718;SDS011;1875;52.492;6.860;2023-05-07T13:18:25;20.43;;;15.53;;
3718;SDS011;1875;52.492;6.860;2023-05-07T13:20:53;19.00;;;14.87;;
3718;SDS011;1875;52.492;6.860;2023-05-07T13:23:21;18.17;;;15.13;;
3718;SDS011;1875;52.492;6.860;2023-05-07T13:25:49;19.20;;;16.93;;
3718;SDS011;1875;52.492;6.860;2023-05-07T13:28:18;18.80;;;16.33;;
3718;SDS011;1875;52.492;6.860;2023-05-07T13:30:47;20.57;;;16.53;;
3718;SDS011;1875;52.492;6.860;2023-05-07T13:33:15;17.27;;;15.17;;
3718;SDS011;1875;52.492;6.860;2023-05-07T13:35:44;19.83;;;16.50;;
3718;SDS011;1875;52.492;6.860;2023-05-07T13:38:12;21.27;;;15.60;;
3718;SDS011;1875;52.492;6.860;2023-05-07T13:40:42;15.47;;;13.53;;
3718;SDS011;1875;52.492;6.860;2023-05-07T13:43:09;20.67;;;15.70;;
3718;SDS011;1875;52.492;6.860;2023-05-07T13:45:37;19.13;;;14.77;;
3718;SDS011;1875;52.492;6.860;2023-05-07T13:48:05;17.50;;;14.57;;
3718;SDS011;1875;52.492;6.860;2023-05-07T13:50:33;17.00;;;14.90;;
3718;SDS011;1875;52.492;6.860;2023-05-07T13:53:02;16.83;;;13.80;;
3718;SDS011;1875;52.492;6.860;2023-05-07T13:55:30;19.87;;;14.27;;
3718;SDS011;1875;52.492;6.860;2023-05-07T13:57:58;15.63;;;12.80;;
3718;SDS011;1875;52.492;6.860;2023-05-07T14:00:27;15.60;;;13.80;;
3718;SDS011;1875;52.492;6.860;2023-05-07T14:02:55;16.87;;;14.60;;
3718;SDS011;1875;52.492;6.860;2023-05-07T14:05:24;16.60;;;13.60;;
3718;SDS011;1875;52.492;6.860;2023-05-07T14:07:52;17.57;;;14.70;;
3718;SDS011;1875;52.492;6.860;2023-05-07T14:10:22;17.20;;;14.80;;
3718;SDS011;1875;52.492;6.860;2023-05-07T14:12:49;15.83;;;13.73;;
3718;SDS011;1875;52.492;6.860;2023-05-07T14:15:19;15.70;;;13.60;;
3718;SDS011;1875;52.492;6.860;2023-05-07T14:17:46;15.37;;;12.80;;
3718;SDS011;1875;52.492;6.860;2023-05-07T14:20:14;14.40;;;12.53;;
3718;SDS011;1875;52.492;6.860;2023-05-07T14:22:42;14.70;;;12.57;;
3718;SDS011;1875;52.492;6.860;2023-05-07T14:25:09;15.57;;;13.70;;
3718;SDS011;1875;52.492;6.860;2023-05-07T14:27:38;18.23;;;12.57;;
3718;SDS011;1875;52.492;6.860;2023-05-07T14:30:06;15.67;;;13.53;;
3718;SDS011;1875;52.492;6.860;2023-05-07T14:32:35;15.13;;;11.90;;
3718;SDS011;1875;52.492;6.860;2023-05-07T14:35:04;17.23;;;13.33;;
3718;SDS011;1875;52.492;6.860;2023-05-07T14:37:32;14.63;;;12.67;;
3718;SDS011;1875;52.492;6.860;2023-05-07T14:39:59;14.30;;;12.10;;
3718;SDS011;1875;52.492;6.860;2023-05-07T14:42:27;18.17;;;12.70;;
3718;SDS011;1875;52.492;6.860;2023-05-07T14:44:56;15.77;;;12.30;;
3718;SDS011;1875;52.492;6.860;2023-05-07T14:47:24;18.20;;;12.77;;
3718;SDS011;1875;52.492;6.860;2023-05-07T14:49:52;13.93;;;12.43;;
3718;SDS011;1875;52.492;6.860;2023-05-07T14:52:20;15.13;;;12.10;;
3718;SDS011;1875;52.492;6.860;2023-05-07T14:54:48;14.70;;;12.47;;
3718;SDS011;1875;52.492;6.860;2023-05-07T14:57:16;13.43;;;11.70;;
3718;SDS011;1875;52.492;6.860;2023-05-07T14:59:44;15.00;;;12.53;;
3718;SDS011;1875;52.492;6.860;2023-05-07T15:02:14;13.07;;;11.43;;
3718;SDS011;1875;52.492;6.860;2023-05-07T15:04:46;13.97;;;12.07;;